Terminal Aerodrome Forecast
Issued by NWS Wichita, KS

Home | Current Version | Previous Version | Text Only | Print | Product List | Glossary Off
Versions: 1 2 3 4 5 6 7 8 9 10 11 12 13 14 15 16 17 18 19 20 21 22 23 24

155
FTUS43 KICT 151120
TAFICT
TAF
KICT 151120Z 1512/1612 35016G24KT P6SM SKC
     FM152000 36011KT P6SM SKC
     FM160200 03004KT P6SM SCT250
     FM160800 10004KT P6SM SCT250=

USA.gov is the U.S. government's official web portal to all federal, state and local government web resources and services.